createdAt,value
2023-01-22T00:01:30.523Z,101838.58
2023-01-22T00:03:59.391Z,101840.45
2023-01-22T00:06:28.026Z,101843.36
2023-01-22T00:08:56.189Z,101846.58
2023-01-22T00:11:25.092Z,101841.77
2023-01-22T00:13:53.471Z,101842.92
2023-01-22T00:16:22.279Z,101843.52
2023-01-22T00:18:50.759Z,101842.69
2023-01-22T00:21:19.130Z,101851.06
2023-01-22T00:23:47.721Z,101856.27
2023-01-22T00:26:17.855Z,101858.38
2023-01-22T00:28:46.669Z,101861.11
2023-01-22T00:31:16.973Z,101861.04
2023-01-22T00:33:47.602Z,101862.98
2023-01-22T00:36:20.432Z,101860.99
2023-01-22T00:38:50.558Z,101864.07
2023-01-22T00:41:20.217Z,101865.23
2023-01-22T00:43:51.149Z,101865.66
2023-01-22T00:46:21.443Z,101861.98
2023-01-22T00:48:50.396Z,101855.41
2023-01-22T00:51:19.020Z,101852.92
2023-01-22T00:53:47.478Z,101858.11
2023-01-22T00:56:16.582Z,101857.61
2023-01-22T00:58:45.361Z,101862.58
2023-01-22T01:01:15.709Z,101864.79
2023-01-22T01:03:44.172Z,101867.58
2023-01-22T01:06:19.985Z,101867.49
2023-01-22T01:08:49.565Z,101871.61
2023-01-22T01:11:22.358Z,101873.52
2023-01-22T01:13:52.442Z,101882.80
2023-01-22T01:16:30.907Z,101880.32
2023-01-22T01:19:00.948Z,101876.06
2023-01-22T01:21:29.886Z,101875.97
2023-01-22T01:23:59.443Z,101874.02
2023-01-22T01:26:28.579Z,101876.59
2023-01-22T01:28:57.339Z,101883.70
2023-01-22T01:31:28.830Z,101890.00
2023-01-22T01:33:58.936Z,101887.77
2023-01-22T01:36:47.251Z,101886.39
2023-01-22T01:39:15.391Z,101897.98
2023-01-22T01:41:43.877Z,101898.54
2023-01-22T01:44:13.897Z,101902.45
2023-01-22T01:46:56.048Z,101904.40
2023-01-22T01:49:24.276Z,101897.11
2023-01-22T01:51:56.135Z,101901.09
2023-01-22T01:54:24.669Z,101905.77
2023-01-22T01:56:57.818Z,101902.23
2023-01-22T01:59:27.605Z,101909.97
2023-01-22T02:01:56.512Z,101912.20
2023-01-22T02:04:27.164Z,101903.48
2023-01-22T02:06:55.817Z,101895.63
2023-01-22T02:09:24.649Z,101889.09
2023-01-22T02:11:53.831Z,101885.27
2023-01-22T02:14:28.596Z,101890.33
2023-01-22T02:17:07.305Z,101898.36
2023-01-22T02:19:35.791Z,101898.60
2023-01-22T02:22:09.601Z,101897.58
2023-01-22T02:24:37.777Z,101897.67
2023-01-22T02:27:09.540Z,101899.73
2023-01-22T02:29:38.716Z,101906.02
2023-01-22T02:32:07.332Z,101917.52
2023-01-22T02:34:39.122Z,101917.10
2023-01-22T02:37:07.788Z,101920.83
2023-01-22T02:39:36.262Z,101912.83
2023-01-22T02:42:06.623Z,101913.92
2023-01-22T02:44:35.302Z,101915.58
2023-01-22T02:47:04.594Z,101917.15
2023-01-22T02:49:34.004Z,101910.40
2023-01-22T02:52:02.602Z,101914.22
2023-01-22T02:54:31.184Z,101910.96
2023-01-22T02:56:59.781Z,101909.53
2023-01-22T02:59:28.980Z,101911.42
2023-01-22T03:01:58.012Z,101908.35
2023-01-22T03:04:29.026Z,101906.55
2023-01-22T03:06:57.310Z,101911.69
2023-01-22T03:09:28.750Z,101912.04
2023-01-22T03:11:58.778Z,101909.98
2023-01-22T03:14:53.161Z,101905.66
2023-01-22T03:17:40.264Z,101913.41
2023-01-22T03:20:28.399Z,101913.63
2023-01-22T03:22:56.786Z,101924.17
2023-01-22T03:25:25.374Z,101921.80
2023-01-22T03:28:16.783Z,101923.26
2023-01-22T03:30:48.647Z,101924.79
2023-01-22T03:33:17.031Z,101926.42
2023-01-22T03:35:45.210Z,101926.92
2023-01-22T03:38:17.071Z,101926.16
2023-01-22T03:40:45.969Z,101925.20
2023-01-22T03:43:14.455Z,101926.34
2023-01-22T03:45:43.166Z,101928.04
2023-01-22T03:48:13.680Z,101934.57
2023-01-22T03:50:42.479Z,101942.90
2023-01-22T03:53:10.762Z,101940.41
2023-01-22T03:55:39.036Z,101941.73
2023-01-22T03:58:07.527Z,101939.04
2023-01-22T04:00:37.239Z,101934.90
2023-01-22T04:03:06.449Z,101942.89
2023-01-22T04:05:35.951Z,101947.83
2023-01-22T04:08:04.848Z,101941.46
2023-01-22T04:10:34.163Z,101943.54
2023-01-22T04:13:04.386Z,101945.34
2023-01-22T04:15:33.173Z,101940.96
2023-01-22T04:18:05.650Z,101940.19
2023-01-22T04:20:48.771Z,101940.14
2023-01-22T04:23:34.884Z,101939.23
2023-01-22T04:26:03.870Z,101937.41
2023-01-22T04:28:32.557Z,101941.73
2023-01-22T04:31:01.746Z,101945.45
2023-01-22T04:33:50.303Z,101953.01
2023-01-22T04:36:28.922Z,101951.09
2023-01-22T04:38:58.673Z,101949.11
2023-01-22T04:41:26.916Z,101944.73
2023-01-22T04:43:55.503Z,101952.90
2023-01-22T04:46:26.413Z,101957.52
2023-01-22T04:48:54.936Z,101962.11
2023-01-22T04:51:23.387Z,101956.74
2023-01-22T04:53:51.801Z,101964.33
2023-01-22T04:56:20.219Z,101968.02
2023-01-22T04:58:49.813Z,101967.52
2023-01-22T05:01:18.459Z,101972.42
2023-01-22T05:03:47.897Z,101970.27
2023-01-22T05:06:16.488Z,101979.23
2023-01-22T05:08:44.869Z,101980.98
2023-01-22T05:11:13.367Z,101978.52
2023-01-22T05:13:52.380Z,101979.20
2023-01-22T05:16:21.793Z,101977.70
2023-01-22T05:18:50.277Z,101983.25
2023-01-22T05:21:19.075Z,101987.48
2023-01-22T05:23:48.278Z,101989.38
2023-01-22T05:26:18.294Z,101991.52
2023-01-22T05:29:09.505Z,101985.26
2023-01-22T05:31:58.002Z,101989.40
2023-01-22T05:34:32.670Z,101996.40
2023-01-22T05:37:01.465Z,102002.46
2023-01-22T05:39:32.317Z,102003.86
2023-01-22T05:42:02.333Z,102010.10
2023-01-22T05:44:33.254Z,102017.39
2023-01-22T05:47:02.679Z,102019.14
2023-01-22T05:50:03.089Z,102022.36
2023-01-22T05:52:31.377Z,102019.15
2023-01-22T05:55:02.034Z,102011.36
2023-01-22T05:57:37.253Z,102015.47
2023-01-22T06:00:08.219Z,102016.23
2023-01-22T06:02:44.817Z,102026.31
2023-01-22T06:05:14.622Z,102034.30
2023-01-22T06:07:43.989Z,102040.89
2023-01-22T06:10:12.171Z,102041.34
2023-01-22T06:12:44.743Z,102041.00
2023-01-22T06:15:13.238Z,102050.54
2023-01-22T06:17:44.080Z,102061.58
2023-01-22T06:20:12.388Z,102066.16
2023-01-22T06:22:40.850Z,102069.35
2023-01-22T06:25:10.260Z,102069.27
2023-01-22T06:28:11.394Z,102068.89
2023-01-22T06:30:40.910Z,102077.80
2023-01-22T06:33:09.284Z,102078.63
2023-01-22T06:35:37.462Z,102078.48
2023-01-22T06:38:06.271Z,102079.10
2023-01-22T06:40:35.456Z,102081.44
2023-01-22T06:43:10.716Z,102083.42
2023-01-22T06:45:39.695Z,102088.60
2023-01-22T06:48:09.726Z,102088.80
2023-01-22T06:50:37.907Z,102089.86
2023-01-22T06:53:06.588Z,102088.00
2023-01-22T06:55:35.081Z,102096.55
2023-01-22T06:58:03.868Z,102101.91
2023-01-22T07:00:32.670Z,102105.93
2023-01-22T07:03:01.042Z,102111.30
2023-01-22T07:05:29.224Z,102116.22
2023-01-22T07:07:57.614Z,102122.55
2023-01-22T07:10:25.795Z,102130.34
2023-01-22T07:13:01.753Z,102137.77
2023-01-22T07:15:30.152Z,102139.77
2023-01-22T07:17:58.415Z,102140.16
2023-01-22T07:20:27.008Z,102143.04
2023-01-22T07:22:59.172Z,102148.05
2023-01-22T07:25:29.177Z,102143.35
2023-01-22T07:28:01.672Z,102140.51
2023-01-22T07:30:30.859Z,102145.02
2023-01-22T07:33:02.914Z,102143.27
2023-01-22T07:35:31.122Z,102147.28
2023-01-22T07:38:00.643Z,102142.38
2023-01-22T07:40:29.326Z,102143.18
2023-01-22T07:42:57.619Z,102139.96
2023-01-22T07:45:26.414Z,102144.08
2023-01-22T07:47:57.288Z,102146.29
2023-01-22T07:50:30.342Z,102151.48
2023-01-22T07:53:00.808Z,102154.95
2023-01-22T07:55:31.608Z,102160.16
2023-01-22T07:58:02.416Z,102156.84
2023-01-22T08:00:31.576Z,102153.91
2023-01-22T08:02:59.931Z,102152.24
2023-01-22T08:05:28.213Z,102157.80
2023-01-22T08:07:56.418Z,102154.27
2023-01-22T08:10:24.883Z,102163.44
2023-01-22T08:12:53.262Z,102169.77
2023-01-22T08:15:21.553Z,102169.96
2023-01-22T08:17:51.322Z,102172.02
2023-01-22T08:20:20.212Z,102169.36
2023-01-22T08:22:48.704Z,102176.23
2023-01-22T08:25:17.537Z,102172.86
2023-01-22T08:27:46.028Z,102173.44
2023-01-22T08:30:16.071Z,102168.60
2023-01-22T08:32:46.069Z,102171.94
2023-01-22T08:35:14.462Z,102178.73
2023-01-22T08:37:44.173Z,102180.55
2023-01-22T08:40:13.995Z,102177.38
2023-01-22T08:42:42.264Z,102183.23
2023-01-22T08:45:11.635Z,102185.70
2023-01-22T08:47:39.756Z,102190.45
2023-01-22T08:50:08.920Z,102198.70
2023-01-22T08:52:37.343Z,102200.11
2023-01-22T08:55:10.014Z,102202.20
2023-01-22T08:57:38.311Z,102207.04
2023-01-22T09:00:11.467Z,102206.18
2023-01-22T09:02:39.777Z,102203.73
2023-01-22T09:05:08.907Z,102206.47
2023-01-22T09:07:37.471Z,102202.26
2023-01-22T09:10:08.248Z,102200.23
2023-01-22T09:12:36.744Z,102198.95
2023-01-22T09:15:05.602Z,102196.02
2023-01-22T09:17:33.877Z,102194.64
2023-01-22T09:20:02.275Z,102201.81
2023-01-22T09:22:30.438Z,102209.04
2023-01-22T09:24:59.651Z,102212.20
2023-01-22T09:27:27.802Z,102203.63
2023-01-22T09:29:56.717Z,102206.58
2023-01-22T09:32:25.208Z,102207.56
2023-01-22T09:34:53.481Z,102208.77
2023-01-22T09:37:21.968Z,102208.09
2023-01-22T09:39:50.670Z,102210.05
2023-01-22T09:42:28.666Z,102208.30
2023-01-22T09:45:03.202Z,102212.05
2023-01-22T09:47:42.289Z,102213.31
2023-01-22T09:50:13.565Z,102218.79
2023-01-22T09:52:41.851Z,102220.16
2023-01-22T09:55:16.680Z,102220.00
2023-01-22T09:57:47.827Z,102216.04
2023-01-22T10:00:30.543Z,102209.92
2023-01-22T10:03:04.126Z,102210.86
2023-01-22T10:05:38.360Z,102208.52
2023-01-22T10:08:12.986Z,102212.45
2023-01-22T10:10:41.883Z,102209.89
2023-01-22T10:13:30.124Z,102206.77
2023-01-22T10:15:58.910Z,102206.83
2023-01-22T10:18:27.311Z,102207.33
2023-01-22T10:20:56.398Z,102210.86
2023-01-22T10:23:26.744Z,102209.96
2023-01-22T10:26:26.125Z,102214.53
2023-01-22T10:28:58.564Z,102211.97
2023-01-22T10:31:34.452Z,102210.93
2023-01-22T10:34:16.739Z,102208.67
2023-01-22T10:36:53.670Z,102213.10
2023-01-22T10:39:22.169Z,102205.19
2023-01-22T10:41:51.248Z,102207.55
2023-01-22T10:44:25.752Z,102209.35
2023-01-22T10:46:55.669Z,102205.52
2023-01-22T10:49:28.209Z,102209.60
2023-01-22T10:52:05.426Z,102208.04
2023-01-22T10:54:39.799Z,102207.38
2023-01-22T10:57:23.316Z,102201.91
2023-01-22T11:00:14.692Z,102203.00
2023-01-22T11:02:46.297Z,102199.27
2023-01-22T11:05:27.521Z,102198.91
2023-01-22T11:08:11.359Z,102204.81
2023-01-22T11:10:59.907Z,102202.05
2023-01-22T11:13:56.938Z,102203.80
2023-01-22T11:16:25.762Z,102198.39
2023-01-22T11:19:12.843Z,102199.02
2023-01-22T11:21:50.544Z,102199.21
2023-01-22T11:24:37.884Z,102205.29
2023-01-22T11:27:22.218Z,102205.91
2023-01-22T11:30:09.449Z,102210.09
2023-01-22T11:32:43.639Z,102211.98
2023-01-22T11:35:33.921Z,102216.94
2023-01-22T11:38:22.463Z,102209.29
2023-01-22T11:41:33.013Z,102206.66
2023-01-22T11:44:23.240Z,102209.56
2023-01-22T11:47:03.861Z,102209.38
2023-01-22T11:49:40.843Z,102211.70
2023-01-22T11:52:38.182Z,102213.98
2023-01-22T11:55:24.326Z,102214.97
2023-01-22T11:58:06.983Z,102215.26
2023-01-22T12:01:05.040Z,102214.40
2023-01-22T12:04:13.691Z,102212.10
2023-01-22T12:07:07.008Z,102212.30
2023-01-22T12:09:51.572Z,102210.80
2023-01-22T12:13:00.262Z,102214.50
2023-01-22T12:15:28.431Z,102219.79
2023-01-22T12:18:19.846Z,102217.83
2023-01-22T12:21:14.123Z,102218.80
2023-01-22T12:23:54.485Z,102216.41
2023-01-22T12:27:05.643Z,102219.23
2023-01-22T12:29:47.733Z,102227.28
2023-01-22T12:32:19.213Z,102226.83
2023-01-22T12:35:19.107Z,102233.06
2023-01-22T12:38:15.924Z,102242.77
2023-01-22T12:41:15.522Z,102249.34
2023-01-22T12:43:56.952Z,102258.48
2023-01-22T12:46:42.881Z,102259.89
2023-01-22T12:49:16.835Z,102265.16
2023-01-22T12:51:53.673Z,102263.56
2023-01-22T12:54:30.552Z,102267.71
2023-01-22T12:57:23.972Z,102267.59
2023-01-22T12:59:55.257Z,102272.25
2023-01-22T13:02:27.071Z,102275.61
2023-01-22T13:05:08.605Z,102278.66
2023-01-22T13:07:39.874Z,102279.25
2023-01-22T13:10:21.527Z,102281.70
2023-01-22T13:12:55.563Z,102282.15
2023-01-22T13:15:25.946Z,102285.46
2023-01-22T13:18:08.049Z,102288.80
2023-01-22T13:20:46.597Z,102287.67
2023-01-22T13:23:16.105Z,102289.14
2023-01-22T13:25:44.599Z,102289.38
2023-01-22T13:28:23.053Z,102295.39
2023-01-22T13:30:59.844Z,102294.94
2023-01-22T13:33:28.991Z,102295.52
2023-01-22T13:35:58.464Z,102302.33
2023-01-22T13:38:30.069Z,102309.36
2023-01-22T13:41:05.091Z,102310.52
2023-01-22T13:43:35.442Z,102312.67
2023-01-22T13:46:04.899Z,102311.06
2023-01-22T13:48:33.324Z,102317.53
2023-01-22T13:51:06.599Z,102316.44
2023-01-22T13:53:38.982Z,102319.36
2023-01-22T13:56:12.986Z,102329.77
2023-01-22T13:58:48.898Z,102333.65
2023-01-22T14:01:32.839Z,102338.99
2023-01-22T14:04:05.786Z,102342.88
2023-01-22T14:06:47.339Z,102344.61
2023-01-22T14:09:35.812Z,102348.55
2023-01-22T14:12:17.344Z,102348.36
2023-01-22T14:14:46.470Z,102349.30
2023-01-22T14:17:25.128Z,102350.64
2023-01-22T14:19:53.497Z,102354.52
2023-01-22T14:22:23.006Z,102356.70
2023-01-22T14:24:54.893Z,102357.61
2023-01-22T14:27:27.757Z,102359.34
2023-01-22T14:29:56.361Z,102365.33
2023-01-22T14:32:24.729Z,102365.07
2023-01-22T14:34:52.810Z,102368.72
2023-01-22T14:37:21.397Z,102371.40
2023-01-22T14:39:49.580Z,102370.15
2023-01-22T14:42:17.857Z,102372.90
2023-01-22T14:44:46.348Z,102376.53
2023-01-22T14:47:15.649Z,102379.52
2023-01-22T14:49:43.836Z,102383.46
2023-01-22T14:52:12.212Z,102382.44
2023-01-22T14:54:40.909Z,102386.55
2023-01-22T14:57:09.495Z,102387.20
2023-01-22T14:59:38.405Z,102394.83
2023-01-22T15:02:06.792Z,102395.92
2023-01-22T15:04:35.057Z,102402.30
2023-01-22T15:07:03.444Z,102405.59
2023-01-22T15:09:31.927Z,102406.59
2023-01-22T15:12:00.413Z,102406.17
2023-01-22T15:14:28.857Z,102411.45
2023-01-22T15:16:56.976Z,102417.43
2023-01-22T15:19:25.463Z,102420.89
2023-01-22T15:21:54.583Z,102421.95
2023-01-22T15:24:24.348Z,102420.36
2023-01-22T15:26:54.204Z,102423.98
2023-01-22T15:29:22.791Z,102425.52
2023-01-22T15:31:51.221Z,102425.61
2023-01-22T15:34:19.763Z,102432.16
2023-01-22T15:36:48.150Z,102437.67
2023-01-22T15:39:17.025Z,102438.73
2023-01-22T15:41:45.732Z,102442.49
2023-01-22T15:44:14.530Z,102449.41
2023-01-22T15:46:43.667Z,102449.76
2023-01-22T15:49:13.389Z,102453.81
2023-01-22T15:51:42.322Z,102453.98
2023-01-22T15:54:15.230Z,102463.32
2023-01-22T15:56:43.919Z,102469.33
2023-01-22T15:59:12.817Z,102475.33
2023-01-22T16:01:41.512Z,102473.77
2023-01-22T16:04:11.047Z,102478.00
2023-01-22T16:06:39.315Z,102478.48
2023-01-22T16:09:08.109Z,102488.72
2023-01-22T16:11:36.893Z,102490.61
2023-01-22T16:14:05.277Z,102491.07
2023-01-22T16:16:36.857Z,102494.16
2023-01-22T16:19:07.452Z,102497.17
2023-01-22T16:21:36.264Z,102492.41
2023-01-22T16:24:05.468Z,102496.08
2023-01-22T16:26:35.151Z,102498.18
2023-01-22T16:29:05.710Z,102500.58
2023-01-22T16:31:35.980Z,102500.04
2023-01-22T16:34:12.302Z,102500.67
2023-01-22T16:36:41.836Z,102502.30
2023-01-22T16:39:17.051Z,102500.52
2023-01-22T16:41:49.034Z,102509.63
2023-01-22T16:44:20.148Z,102509.38
2023-01-22T16:46:52.439Z,102509.98
2023-01-22T16:49:26.630Z,102509.45
2023-01-22T16:51:59.324Z,102517.75
2023-01-22T16:54:35.987Z,102515.38
2023-01-22T16:57:07.092Z,102516.67
2023-01-22T16:59:37.663Z,102513.27
2023-01-22T17:02:12.494Z,102515.14
2023-01-22T17:04:41.008Z,102518.49
2023-01-22T17:07:20.510Z,102523.31
2023-01-22T17:09:56.608Z,102527.45
2023-01-22T17:12:25.302Z,102530.14
2023-01-22T17:14:53.478Z,102533.64
2023-01-22T17:17:21.758Z,102530.25
2023-01-22T17:19:49.940Z,102533.93
2023-01-22T17:22:18.137Z,102535.98
2023-01-22T17:24:47.945Z,102544.80
2023-01-22T17:27:18.736Z,102546.08
2023-01-22T17:29:47.261Z,102550.14
2023-01-22T17:32:15.852Z,102552.18
2023-01-22T17:34:44.342Z,102557.95
2023-01-22T17:37:13.796Z,102559.10
2023-01-22T17:39:43.442Z,102558.71
2023-01-22T17:42:11.949Z,102562.70
2023-01-22T17:44:41.008Z,102563.91
2023-01-22T17:47:09.949Z,102568.27
2023-01-22T17:49:38.737Z,102569.42
2023-01-22T17:52:09.220Z,102574.48
2023-01-22T17:54:38.268Z,102570.09
2023-01-22T17:57:06.944Z,102572.02
2023-01-22T17:59:35.451Z,102568.75
2023-01-22T18:02:04.503Z,102572.80
2023-01-22T18:04:35.085Z,102574.39
2023-01-22T18:07:04.903Z,102577.67
2023-01-22T18:09:33.184Z,102582.78
2023-01-22T18:12:03.053Z,102584.15
2023-01-22T18:14:34.380Z,102587.44
2023-01-22T18:17:02.731Z,102584.88
2023-01-22T18:19:31.712Z,102590.08
2023-01-22T18:21:59.914Z,102590.95
2023-01-22T18:24:31.360Z,102590.84
2023-01-22T18:27:00.158Z,102590.52
2023-01-22T18:29:29.057Z,102590.77
2023-01-22T18:31:58.243Z,102596.23
2023-01-22T18:34:26.445Z,102604.71
2023-01-22T18:36:54.722Z,102610.57
2023-01-22T18:39:23.515Z,102608.12
2023-01-22T18:41:51.694Z,102605.14
2023-01-22T18:44:21.814Z,102611.14
2023-01-22T18:46:52.553Z,102610.27
2023-01-22T18:49:20.847Z,102617.58
2023-01-22T18:51:49.638Z,102620.88
2023-01-22T18:54:18.228Z,102619.77
2023-01-22T18:56:47.369Z,102621.46
2023-01-22T18:59:16.011Z,102619.22
2023-01-22T19:01:50.694Z,102621.34
2023-01-22T19:04:22.094Z,102619.56
2023-01-22T19:06:53.654Z,102621.55
2023-01-22T19:09:22.550Z,102623.52
2023-01-22T19:11:52.475Z,102626.34
2023-01-22T19:14:21.767Z,102630.44
2023-01-22T19:16:53.570Z,102631.27
2023-01-22T19:19:25.615Z,102636.67
2023-01-22T19:21:55.687Z,102635.14
2023-01-22T19:24:28.001Z,102633.65
2023-01-22T19:26:57.803Z,102631.59
2023-01-22T19:29:26.962Z,102635.02
2023-01-22T19:31:57.100Z,102638.84
2023-01-22T19:34:28.742Z,102637.64
2023-01-22T19:37:01.316Z,102638.81
2023-01-22T19:39:30.242Z,102646.92
2023-01-22T19:42:02.311Z,102644.42
2023-01-22T19:44:31.855Z,102643.67
2023-01-22T19:47:01.924Z,102643.34
2023-01-22T19:49:30.472Z,102649.14
2023-01-22T19:51:58.953Z,102650.52
2023-01-22T19:54:27.748Z,102654.21
2023-01-22T19:56:56.238Z,102657.94
2023-01-22T19:59:24.880Z,102655.84
2023-01-22T20:01:53.391Z,102653.27
2023-01-22T20:04:28.868Z,102653.22
2023-01-22T20:07:01.434Z,102647.52
2023-01-22T20:09:31.137Z,102655.04
2023-01-22T20:12:00.135Z,102656.08
2023-01-22T20:14:34.083Z,102661.16
2023-01-22T20:17:02.974Z,102661.48
2023-01-22T20:19:31.698Z,102669.52
2023-01-22T20:22:02.966Z,102669.65
2023-01-22T20:24:31.606Z,102668.54
2023-01-22T20:27:01.405Z,102671.02
2023-01-22T20:29:29.993Z,102675.44
2023-01-22T20:31:59.516Z,102680.84
2023-01-22T20:34:28.107Z,102686.42
2023-01-22T20:36:56.277Z,102681.83
2023-01-22T20:39:24.937Z,102683.52
2023-01-22T20:41:54.769Z,102685.39
2023-01-22T20:44:23.168Z,102688.97
2023-01-22T20:46:51.753Z,102693.09
2023-01-22T20:49:19.937Z,102695.59
2023-01-22T20:51:48.440Z,102697.92
2023-01-22T20:54:18.575Z,102701.86
2023-01-22T20:56:47.339Z,102708.02
2023-01-22T20:59:19.888Z,102703.02
2023-01-22T21:01:48.626Z,102700.78
2023-01-22T21:04:18.746Z,102699.36
2023-01-22T21:06:47.433Z,102700.19
2023-01-22T21:09:15.911Z,102707.06
2023-01-22T21:11:44.607Z,102713.06
2023-01-22T21:14:20.474Z,102723.27
2023-01-22T21:16:49.254Z,102726.63
2023-01-22T21:19:21.324Z,102728.73
2023-01-22T21:21:50.823Z,102730.35
2023-01-22T21:24:19.840Z,102730.77
2023-01-22T21:26:48.435Z,102736.38
2023-01-22T21:29:21.041Z,102736.23
2023-01-22T21:31:51.969Z,102736.33
2023-01-22T21:34:24.389Z,102739.50
2023-01-22T21:36:54.861Z,102741.26
2023-01-22T21:39:25.388Z,102737.42
2023-01-22T21:42:13.926Z,102739.67
2023-01-22T21:45:02.269Z,102736.02
2023-01-22T21:47:30.866Z,102734.71
2023-01-22T21:49:59.239Z,102732.41
2023-01-22T21:52:27.623Z,102732.17
2023-01-22T21:54:57.073Z,102737.23
2023-01-22T21:57:26.197Z,102734.93
2023-01-22T21:59:54.419Z,102730.25
2023-01-22T22:02:22.906Z,102734.90
2023-01-22T22:04:51.447Z,102733.17
2023-01-22T22:07:20.595Z,102732.61
2023-01-22T22:09:49.242Z,102734.83
2023-01-22T22:12:17.361Z,102739.08
2023-01-22T22:14:45.538Z,102734.84
2023-01-22T22:17:14.026Z,102737.76
2023-01-22T22:19:42.209Z,102735.36
2023-01-22T22:22:10.386Z,102739.41
2023-01-22T22:24:39.429Z,102741.28
2023-01-22T22:27:08.437Z,102736.55
2023-01-22T22:29:36.671Z,102734.27
2023-01-22T22:32:05.333Z,102736.80
2023-01-22T22:34:33.890Z,102738.05
2023-01-22T22:37:02.131Z,102742.20
2023-01-22T22:39:30.305Z,102743.26
2023-01-22T22:41:58.794Z,102743.45
2023-01-22T22:44:27.313Z,102746.48
2023-01-22T22:46:55.559Z,102748.96
2023-01-22T22:49:23.760Z,102754.41
2023-01-22T22:51:51.923Z,102757.35
2023-01-22T22:54:20.201Z,102757.05
2023-01-22T22:56:49.890Z,102755.52
2023-01-22T22:59:19.939Z,102752.33
2023-01-22T23:01:50.006Z,102756.54
2023-01-22T23:04:18.416Z,102757.05
2023-01-22T23:06:47.289Z,102757.11
2023-01-22T23:09:19.804Z,102758.11
2023-01-22T23:11:51.784Z,102753.60
2023-01-22T23:14:20.083Z,102748.43
2023-01-22T23:16:49.519Z,102753.34
2023-01-22T23:19:24.647Z,102752.52
2023-01-22T23:21:58.729Z,102756.98
2023-01-22T23:24:28.179Z,102757.23
2023-01-22T23:26:57.260Z,102761.39
2023-01-22T23:29:27.160Z,102756.34
2023-01-22T23:31:56.884Z,102755.20
2023-01-22T23:34:25.053Z,102755.23
2023-01-22T23:36:53.348Z,102755.45
2023-01-22T23:39:22.229Z,102754.08
2023-01-22T23:41:50.814Z,102757.51
2023-01-22T23:44:19.422Z,102759.42
2023-01-22T23:46:48.408Z,102765.77
2023-01-22T23:49:16.795Z,102763.87
2023-01-22T23:51:46.002Z,102767.23
2023-01-22T23:54:14.375Z,102767.63
2023-01-22T23:56:43.041Z,102767.75
2023-01-22T23:59:12.670Z,102767.73
